Accueil
METAR-TAF:

METAR-TAF

Aéroports :

Dübendorf, Suisse

latitude: 47-23-55N, longitude: 8-38-53E, altitude: 448 m

Observation

Le bulletin a été fait il y a 20 minutes, à 04:50 UTC
Vent 2 kt de nord
Température 1°C
Humidité 93%
Pression 1024 hPa
Visibilité: 6000 m
Nuages épars à une hauteur de 800 ft
Nuages épars à une hauteur de 1300 ft
Ciel couvert à une hauteur de 1900 ft
pluie faible, neige

METAR: LSMD 180450Z AUTO 36002KT 6000NDV -RASN SCT008 SCT013 OVC019 01/M00 Q1024 RMK

Heure: 06:10 (05:10 UTC)


TAF: absent

Observations et prévisions météorologiques de plus de 4000 aéroports (messages METAR et TAF).

Les stations disponibles sont représentées par des disques jaunes et rouges sur la carte.

Passer la souris dessus pour voir le nom de la station.

Cliquer dessus pour voir les observations et prévisions météorologiques.

Pour changer de carte: cliquez sur les boutons verts avec une croix noire pour zoomer, sur le bouton vert avec un tiret pour effectuer un zoom arrière, ou sur les flèches vertes pour les cartes adjacentes.


METAR-TAF: